createdAt,value
2023-03-22T00:00:14.940Z,2.97
2023-03-22T00:01:48.094Z,2.72
2023-03-22T00:03:21.145Z,3.72
2023-03-22T00:04:57.416Z,3.38
2023-03-22T00:06:30.895Z,3.03
2023-03-22T00:08:06.949Z,3.75
2023-03-22T00:09:40.135Z,2.45
2023-03-22T00:11:15.195Z,1.63
2023-03-22T00:12:48.252Z,4.20
2023-03-22T00:14:23.560Z,3.00
2023-03-22T00:15:59.567Z,3.95
2023-03-22T00:17:34.206Z,2.75
2023-03-22T00:19:15.268Z,3.92
2023-03-22T00:20:50.636Z,2.60
2023-03-22T00:22:28.643Z,4.65
2023-03-22T00:24:01.758Z,3.03
2023-03-22T00:25:34.825Z,1.77
2023-03-22T00:27:08.186Z,3.67
2023-03-22T00:28:44.645Z,2.60
2023-03-22T00:30:18.201Z,2.53
2023-03-22T00:31:54.277Z,3.97
2023-03-22T00:33:27.583Z,2.22
2023-03-22T00:35:02.440Z,2.80
2023-03-22T00:38:14.218Z,2.35
2023-03-22T00:39:48.466Z,4.45
2023-03-22T00:41:23.956Z,2.63
2023-03-22T00:42:56.198Z,2.45
2023-03-22T00:44:31.386Z,3.92
2023-03-22T00:46:05.777Z,2.28
2023-03-22T00:47:40.425Z,2.85
2023-03-22T00:49:13.579Z,3.13
2023-03-22T00:50:47.188Z,2.50
2023-03-22T00:52:19.430Z,2.55
2023-03-22T00:53:54.047Z,2.15
2023-03-22T00:55:27.648Z,3.75
2023-03-22T00:57:01.013Z,2.65
2023-03-22T00:58:35.123Z,1.75
2023-03-22T01:00:13.001Z,4.85
2023-03-22T01:01:46.235Z,3.13
2023-03-22T01:03:21.792Z,2.55
2023-03-22T01:04:55.024Z,3.03
2023-03-22T01:06:28.417Z,1.63
2023-03-22T01:08:06.251Z,1.98
2023-03-22T01:09:39.413Z,2.05
2023-03-22T01:11:13.606Z,3.45
2023-03-22T01:12:46.386Z,2.50
2023-03-22T01:14:19.496Z,2.92
2023-03-22T01:15:52.685Z,2.45
2023-03-22T01:17:25.026Z,2.10
2023-03-22T01:18:59.523Z,3.47
2023-03-22T01:20:33.491Z,2.15
2023-03-22T01:22:08.445Z,3.70
2023-03-22T01:23:42.105Z,3.75
2023-03-22T01:25:15.386Z,2.50
2023-03-22T01:26:49.010Z,2.83
2023-03-22T01:28:23.104Z,2.50
2023-03-22T01:29:57.711Z,4.25
2023-03-22T01:31:30.830Z,2.88
2023-03-22T01:33:05.630Z,2.72
2023-03-22T01:34:39.237Z,3.42
2023-03-22T01:36:13.056Z,2.88
2023-03-22T01:37:45.204Z,4.13
2023-03-22T01:39:18.934Z,2.58
2023-03-22T01:40:54.747Z,4.07
2023-03-22T01:42:29.276Z,3.47
2023-03-22T01:44:17.051Z,2.67
2023-03-22T01:45:51.799Z,2.60
2023-03-22T01:47:28.025Z,5.30
2023-03-22T01:49:04.175Z,3.15
2023-03-22T01:50:42.507Z,3.70
2023-03-22T01:52:16.721Z,4.80
2023-03-22T01:54:01.803Z,2.08
2023-03-22T01:55:35.393Z,3.10
2023-03-22T01:57:15.806Z,2.55
2023-03-22T01:58:51.167Z,3.70
2023-03-22T02:00:28.408Z,2.92
2023-03-22T02:02:30.769Z,2.58
2023-03-22T02:04:21.004Z,3.42
2023-03-22T02:05:55.007Z,3.72
2023-03-22T02:07:31.758Z,3.40
2023-03-22T02:09:08.082Z,3.05
2023-03-22T02:10:41.338Z,2.55
2023-03-22T02:12:38.459Z,3.88
2023-03-22T02:14:49.907Z,4.53
2023-03-22T02:16:57.266Z,2.53
2023-03-22T02:18:50.066Z,3.55
2023-03-22T02:21:13.705Z,5.32
2023-03-22T02:23:21.158Z,4.38
2023-03-22T02:25:36.047Z,2.83
2023-03-22T02:27:40.060Z,3.13
2023-03-22T02:29:19.171Z,2.80
2023-03-22T02:31:50.916Z,2.65
2023-03-22T02:33:58.558Z,3.65
2023-03-22T02:35:56.867Z,3.38
2023-03-22T02:38:15.868Z,3.63
2023-03-22T02:39:56.765Z,2.65
2023-03-22T02:41:47.417Z,5.03
2023-03-22T02:43:34.482Z,3.25
2023-03-22T02:45:16.706Z,3.70
2023-03-22T02:47:02.070Z,5.32
2023-03-22T02:48:43.011Z,2.88
2023-03-22T02:50:23.842Z,4.45
2023-03-22T02:52:10.072Z,4.30
2023-03-22T02:55:30.250Z,3.92
2023-03-22T02:57:11.248Z,4.88
2023-03-22T02:58:50.197Z,3.17
2023-03-22T03:00:26.291Z,4.13
2023-03-22T03:02:04.124Z,3.00
2023-03-22T03:03:39.792Z,3.92
2023-03-22T03:05:16.155Z,3.45
2023-03-22T03:06:53.076Z,4.40
2023-03-22T03:08:28.972Z,4.72
2023-03-22T03:10:04.051Z,3.78
2023-03-22T03:11:38.453Z,3.33
2023-03-22T03:13:13.677Z,3.65
2023-03-22T03:14:46.821Z,3.50
2023-03-22T03:16:26.475Z,3.42
2023-03-22T03:18:27.557Z,4.90
2023-03-22T03:20:18.713Z,4.10
2023-03-22T03:22:00.821Z,4.20
2023-03-22T03:23:56.092Z,5.03
2023-03-22T03:25:43.515Z,4.82
2023-03-22T03:27:28.152Z,4.75
2023-03-22T03:29:06.554Z,5.80
2023-03-22T03:30:49.101Z,3.63
2023-03-22T03:32:31.380Z,4.63
2023-03-22T03:34:18.339Z,4.47
2023-03-22T03:35:58.124Z,4.30
2023-03-22T03:37:39.695Z,4.50
2023-03-22T03:39:16.140Z,5.15
2023-03-22T03:40:55.285Z,4.05
2023-03-22T03:42:31.595Z,4.32
2023-03-22T03:44:06.287Z,4.93
2023-03-22T03:45:40.949Z,4.60
2023-03-22T03:47:15.744Z,3.60
2023-03-22T03:48:51.677Z,4.25
2023-03-22T03:50:26.939Z,5.20
2023-03-22T03:52:01.669Z,3.72
2023-03-22T03:53:35.210Z,5.07
2023-03-22T03:55:09.697Z,4.60
2023-03-22T03:56:42.847Z,4.65
2023-03-22T03:58:17.436Z,5.10
2023-03-22T03:59:52.264Z,3.40
2023-03-22T04:01:35.699Z,4.07
2023-03-22T04:03:18.599Z,3.88
2023-03-22T04:05:08.313Z,5.45
2023-03-22T04:06:42.664Z,4.55
2023-03-22T04:08:20.324Z,4.10
2023-03-22T04:09:53.507Z,4.30
2023-03-22T04:11:33.555Z,5.38
2023-03-22T04:13:08.784Z,4.68
2023-03-22T04:14:43.628Z,4.82
2023-03-22T04:16:25.809Z,4.28
2023-03-22T04:17:59.873Z,3.92
2023-03-22T04:19:35.787Z,4.25
2023-03-22T04:21:09.304Z,4.13
2023-03-22T04:23:05.736Z,4.35
2023-03-22T04:24:37.900Z,3.90
2023-03-22T04:26:11.012Z,3.70
2023-03-22T04:27:55.835Z,4.47
2023-03-22T04:29:32.189Z,5.18
2023-03-22T04:31:19.575Z,6.68
2023-03-22T04:32:58.052Z,6.30
2023-03-22T04:34:43.527Z,4.80
2023-03-22T04:36:19.647Z,4.20
2023-03-22T04:38:12.458Z,3.58
2023-03-22T04:39:47.286Z,5.10
2023-03-22T04:41:40.733Z,3.40
2023-03-22T04:43:13.917Z,4.63
2023-03-22T04:44:56.085Z,5.05
2023-03-22T04:46:31.610Z,3.97
2023-03-22T04:48:10.389Z,4.45
2023-03-22T04:49:44.172Z,4.65
2023-03-22T04:51:17.747Z,5.50
2023-03-22T04:53:14.755Z,3.60
2023-03-22T04:54:50.822Z,5.13
2023-03-22T04:56:24.587Z,5.35
2023-03-22T04:57:58.633Z,5.43
2023-03-22T04:59:31.899Z,4.05
2023-03-22T05:01:06.131Z,4.80
2023-03-22T05:02:41.496Z,3.75
2023-03-22T05:04:21.625Z,4.65
2023-03-22T05:06:01.869Z,4.47
2023-03-22T05:07:44.227Z,4.65
2023-03-22T05:09:17.858Z,8.05
2023-03-22T05:10:52.132Z,3.85
2023-03-22T05:12:25.658Z,5.60
2023-03-22T05:14:04.587Z,4.75
2023-03-22T05:15:41.641Z,5.28
2023-03-22T05:17:15.574Z,5.07
2023-03-22T05:18:54.316Z,5.72
2023-03-22T05:20:27.409Z,5.90
2023-03-22T05:22:14.146Z,4.18
2023-03-22T05:23:51.708Z,3.40
2023-03-22T05:25:25.890Z,4.65
2023-03-22T05:27:00.813Z,5.82
2023-03-22T05:30:17.143Z,4.53
2023-03-22T05:31:58.325Z,3.97
2023-03-22T05:33:31.851Z,5.32
2023-03-22T05:35:07.553Z,5.78
2023-03-22T05:36:46.403Z,5.20
2023-03-22T05:38:28.797Z,6.30
2023-03-22T05:40:10.049Z,4.53
2023-03-22T05:41:47.979Z,6.18
2023-03-22T05:43:21.593Z,4.05
2023-03-22T05:44:56.553Z,6.05
2023-03-22T05:46:30.371Z,4.97
2023-03-22T05:48:23.496Z,5.03
2023-03-22T05:49:56.816Z,3.75
2023-03-22T05:51:32.597Z,4.28
2023-03-22T05:53:06.314Z,4.30
2023-03-22T05:54:50.292Z,4.97
2023-03-22T05:56:24.742Z,5.70
2023-03-22T05:58:07.590Z,3.95
2023-03-22T05:59:43.970Z,7.03
2023-03-22T06:01:25.540Z,4.20
2023-03-22T06:03:22.518Z,5.32
2023-03-22T06:05:02.360Z,4.90
2023-03-22T06:06:39.497Z,5.60
2023-03-22T06:08:31.265Z,4.88
2023-03-22T06:10:06.647Z,8.75
2023-03-22T06:11:39.805Z,4.68
2023-03-22T06:13:12.977Z,5.38
2023-03-22T06:14:46.077Z,6.22
2023-03-22T06:16:41.175Z,4.80
2023-03-22T06:18:14.877Z,4.10
2023-03-22T06:19:53.318Z,6.25
2023-03-22T06:23:01.032Z,5.82
2023-03-22T06:24:34.913Z,5.80
2023-03-22T06:26:11.239Z,7.45
2023-03-22T06:27:44.642Z,4.38
2023-03-22T06:29:17.769Z,6.15
2023-03-22T06:30:51.076Z,5.90
2023-03-22T06:32:35.388Z,5.95
2023-03-22T06:34:08.879Z,5.05
2023-03-22T06:35:47.809Z,5.88
2023-03-22T06:37:27.797Z,6.38
2023-03-22T06:39:05.026Z,6.63
2023-03-22T06:40:38.566Z,6.63
2023-03-22T06:42:12.402Z,4.43
2023-03-22T06:43:45.705Z,4.43
2023-03-22T06:45:33.428Z,5.00
2023-03-22T06:48:51.447Z,4.80
2023-03-22T06:50:24.766Z,4.53
2023-03-22T06:52:11.131Z,5.50
2023-03-22T06:53:45.381Z,3.90
2023-03-22T06:55:19.932Z,4.57
2023-03-22T06:56:53.096Z,5.03
2023-03-22T06:58:27.195Z,5.70
2023-03-22T07:00:00.700Z,4.90
2023-03-22T07:01:34.062Z,4.65
2023-03-22T07:03:07.267Z,4.78
2023-03-22T07:04:49.851Z,4.18
2023-03-22T07:06:23.266Z,5.03
2023-03-22T07:07:57.656Z,5.40
2023-03-22T07:09:32.728Z,5.97
2023-03-22T07:11:08.602Z,5.72
2023-03-22T07:12:42.604Z,5.55
2023-03-22T07:14:19.950Z,5.88
2023-03-22T07:16:10.997Z,4.80
2023-03-22T07:17:51.932Z,4.78
2023-03-22T07:19:25.963Z,3.50
2023-03-22T07:20:59.640Z,4.65
2023-03-22T07:22:32.907Z,4.03
2023-03-22T07:24:09.039Z,3.63
2023-03-22T07:25:42.983Z,5.38
2023-03-22T07:27:31.566Z,4.72
2023-03-22T07:29:05.674Z,3.83
2023-03-22T07:30:41.301Z,3.47
2023-03-22T07:32:15.020Z,4.65
2023-03-22T07:34:07.155Z,5.45
2023-03-22T07:35:48.645Z,5.22
2023-03-22T07:37:21.783Z,4.10
2023-03-22T07:38:54.984Z,5.72
2023-03-22T07:40:34.631Z,5.18
2023-03-22T07:42:09.431Z,4.00
2023-03-22T07:43:55.381Z,5.30
2023-03-22T07:45:30.542Z,7.35
2023-03-22T07:47:39.401Z,4.38
2023-03-22T07:49:25.213Z,5.32
2023-03-22T07:51:16.865Z,3.92
2023-03-22T07:52:50.125Z,4.20
2023-03-22T07:54:33.374Z,3.67
2023-03-22T07:56:10.179Z,5.20
2023-03-22T07:57:43.280Z,5.15
2023-03-22T07:59:18.304Z,4.95
2023-03-22T08:00:51.730Z,3.45
2023-03-22T08:02:45.579Z,4.75
2023-03-22T08:04:28.152Z,5.47
2023-03-22T08:06:07.632Z,4.00
2023-03-22T08:07:42.208Z,4.00
2023-03-22T08:09:16.615Z,3.58
2023-03-22T08:10:51.352Z,3.95
2023-03-22T08:14:05.864Z,4.00
2023-03-22T08:15:43.460Z,4.45
2023-03-22T08:17:17.248Z,4.90
2023-03-22T08:18:50.720Z,2.83
2023-03-22T08:20:27.155Z,4.05
2023-03-22T08:22:06.737Z,3.22
2023-03-22T08:24:03.173Z,3.90
2023-03-22T08:26:01.067Z,3.50
2023-03-22T08:27:34.246Z,4.32
2023-03-22T08:29:07.999Z,5.43
2023-03-22T08:30:45.944Z,2.97
2023-03-22T08:32:20.214Z,3.95
2023-03-22T08:33:53.499Z,5.70
2023-03-22T08:35:26.732Z,3.00
2023-03-22T08:36:59.937Z,4.10
2023-03-22T08:38:33.172Z,2.47
2023-03-22T08:40:10.218Z,3.88
2023-03-22T08:41:47.912Z,3.50
2023-03-22T08:43:21.642Z,3.65
2023-03-22T08:44:55.005Z,3.67
2023-03-22T08:46:32.450Z,5.82
2023-03-22T08:48:06.377Z,2.33
2023-03-22T08:49:53.489Z,3.53
2023-03-22T08:52:07.355Z,4.65
2023-03-22T08:53:50.386Z,3.80
2023-03-22T08:55:44.779Z,4.07
2023-03-22T08:57:17.967Z,2.25
2023-03-22T08:59:11.653Z,4.00
2023-03-22T09:00:54.053Z,2.88
2023-03-22T09:02:51.996Z,3.00
2023-03-22T09:04:26.158Z,4.50
2023-03-22T09:05:59.618Z,3.45
2023-03-22T09:07:35.945Z,3.40
2023-03-22T09:09:14.797Z,3.10
2023-03-22T09:10:51.847Z,2.47
2023-03-22T09:12:27.530Z,3.47
2023-03-22T09:14:00.635Z,3.80
2023-03-22T09:15:33.795Z,4.05
2023-03-22T09:17:36.491Z,3.50
2023-03-22T09:19:11.383Z,4.28
2023-03-22T09:20:46.625Z,4.22
2023-03-22T09:22:21.782Z,2.55
2023-03-22T09:23:56.765Z,1.85
2023-03-22T09:25:39.261Z,4.78
2023-03-22T09:27:12.548Z,3.25
2023-03-22T09:28:47.001Z,2.60
2023-03-22T09:30:20.286Z,2.90
2023-03-22T09:31:53.763Z,4.47
2023-03-22T09:33:31.790Z,1.50
2023-03-22T09:35:07.442Z,3.22
2023-03-22T09:36:53.793Z,2.55
2023-03-22T09:38:33.666Z,2.50
2023-03-22T09:40:09.280Z,2.05
2023-03-22T09:41:49.550Z,2.75
2023-03-22T09:43:23.183Z,3.25
2023-03-22T09:44:58.383Z,2.92
2023-03-22T09:46:37.993Z,2.53
2023-03-22T09:48:20.539Z,3.30
2023-03-22T09:50:05.698Z,5.32
2023-03-22T09:51:43.477Z,1.85
2023-03-22T09:53:18.649Z,3.38
2023-03-22T09:54:53.225Z,4.13
2023-03-22T09:58:17.271Z,1.95
2023-03-22T09:59:59.338Z,2.38
2023-03-22T10:01:46.527Z,2.40
2023-03-22T10:03:34.686Z,3.30
2023-03-22T10:05:23.767Z,2.35
2023-03-22T10:07:09.038Z,3.70
2023-03-22T10:08:55.640Z,1.90
2023-03-22T10:10:29.448Z,2.72
2023-03-22T10:12:12.569Z,3.33
2023-03-22T10:14:02.683Z,2.65
2023-03-22T10:15:40.627Z,1.40
2023-03-22T10:17:19.214Z,2.13
2023-03-22T10:19:02.593Z,1.95
2023-03-22T10:20:44.856Z,1.63
2023-03-22T10:22:25.581Z,2.20
2023-03-22T10:24:03.591Z,3.28
2023-03-22T10:25:41.378Z,2.03
2023-03-22T10:27:19.159Z,2.88
2023-03-22T10:29:03.973Z,2.30
2023-03-22T10:30:41.811Z,2.25
2023-03-22T10:32:18.547Z,2.20
2023-03-22T10:34:00.091Z,1.50
2023-03-22T10:35:33.532Z,2.55
2023-03-22T10:37:11.078Z,2.28
2023-03-22T10:38:51.038Z,2.22
2023-03-22T10:40:29.512Z,2.05
2023-03-22T10:42:08.778Z,2.45
2023-03-22T10:43:43.964Z,1.33
2023-03-22T10:45:17.642Z,1.50
2023-03-22T10:46:53.238Z,1.67
2023-03-22T10:48:32.946Z,0.93
2023-03-22T10:50:13.584Z,2.15
2023-03-22T10:51:51.976Z,1.88
2023-03-22T10:53:42.116Z,1.38
2023-03-22T10:55:17.048Z,1.52
2023-03-22T10:56:50.232Z,1.08
2023-03-22T10:58:29.178Z,2.80
2023-03-22T11:00:11.346Z,1.40
2023-03-22T11:01:46.394Z,2.97
2023-03-22T11:03:30.673Z,2.25
2023-03-22T11:05:07.328Z,0.88
2023-03-22T11:06:49.493Z,1.65
2023-03-22T11:08:22.603Z,2.00
2023-03-22T11:10:12.408Z,2.88
2023-03-22T11:11:53.445Z,1.75
2023-03-22T11:13:27.146Z,2.17
2023-03-22T11:15:00.608Z,1.92
2023-03-22T11:16:43.934Z,1.35
2023-03-22T11:18:18.646Z,1.90
2023-03-22T11:19:56.177Z,2.08
2023-03-22T11:21:33.820Z,2.17
2023-03-22T11:23:07.787Z,1.48
2023-03-22T11:24:41.021Z,2.20
2023-03-22T11:26:15.653Z,1.58
2023-03-22T11:27:56.406Z,1.02
2023-03-22T11:29:29.911Z,1.02
2023-03-22T11:31:08.551Z,1.20
2023-03-22T11:32:41.728Z,1.80
2023-03-22T11:34:21.491Z,2.08
2023-03-22T11:35:57.718Z,1.45
2023-03-22T11:37:30.984Z,1.73
2023-03-22T11:39:08.640Z,1.10
2023-03-22T11:40:54.653Z,2.78
2023-03-22T11:42:28.294Z,2.17
2023-03-22T11:44:08.205Z,0.90
2023-03-22T11:45:45.305Z,2.13
2023-03-22T11:47:20.795Z,1.30
2023-03-22T11:49:01.739Z,3.10
2023-03-22T11:50:40.746Z,2.60
2023-03-22T11:52:20.197Z,2.75
2023-03-22T11:54:04.361Z,1.05
2023-03-22T11:55:38.482Z,2.20
2023-03-22T11:57:19.279Z,4.40
2023-03-22T11:59:01.781Z,7.15
2023-03-22T12:00:41.314Z,7.65
2023-03-22T12:02:25.531Z,1.92
2023-03-22T12:04:02.048Z,2.28
2023-03-22T12:05:42.618Z,4.90
2023-03-22T12:07:22.116Z,13.02
2023-03-22T12:09:04.029Z,15.32
2023-03-22T12:10:43.950Z,19.60
2023-03-22T12:12:24.309Z,12.05
2023-03-22T12:14:04.066Z,10.95
2023-03-22T12:15:48.237Z,63.72
2023-03-22T12:17:35.183Z,42.08
2023-03-22T12:19:24.135Z,23.35
2023-03-22T12:21:01.013Z,12.07
2023-03-22T12:22:40.024Z,14.40
2023-03-22T12:24:26.929Z,6.55
2023-03-22T12:26:04.562Z,33.13
2023-03-22T12:27:42.536Z,12.75
2023-03-22T12:29:19.869Z,18.08
2023-03-22T12:30:58.619Z,12.90
2023-03-22T12:32:38.566Z,5.70
2023-03-22T12:34:19.096Z,5.68
2023-03-22T12:35:58.717Z,8.88
2023-03-22T12:37:38.282Z,3.97
2023-03-22T12:39:23.762Z,2.42
2023-03-22T12:41:02.934Z,2.58
2023-03-22T12:42:51.187Z,1.83
2023-03-22T12:44:34.060Z,2.97
2023-03-22T12:46:18.355Z,1.55
2023-03-22T12:48:01.193Z,1.33
2023-03-22T12:49:41.950Z,1.92
2023-03-22T12:51:16.685Z,3.30
2023-03-22T12:54:29.942Z,3.03
2023-03-22T12:56:04.188Z,2.30
2023-03-22T12:57:38.425Z,2.15
2023-03-22T12:59:19.140Z,2.75
2023-03-22T13:00:58.017Z,3.58
2023-03-22T13:02:36.117Z,2.90
2023-03-22T13:04:33.877Z,1.30
2023-03-22T13:06:34.884Z,5.47
2023-03-22T13:08:08.977Z,2.30
2023-03-22T13:09:47.071Z,11.07
2023-03-22T13:11:25.477Z,4.50
2023-03-22T13:13:17.217Z,6.30
2023-03-22T13:15:01.865Z,5.00
2023-03-22T13:16:52.967Z,5.57
2023-03-22T13:18:57.168Z,12.55
2023-03-22T13:20:34.207Z,7.25
2023-03-22T13:22:28.541Z,4.00
2023-03-22T13:24:23.344Z,3.83
2023-03-22T13:26:04.115Z,1.83
2023-03-22T13:27:41.698Z,1.60
2023-03-22T13:29:20.821Z,3.67
2023-03-22T13:30:58.109Z,3.70
2023-03-22T13:32:34.817Z,2.33
2023-03-22T13:34:17.785Z,3.33
2023-03-22T13:35:56.446Z,3.88
2023-03-22T13:37:36.737Z,1.00
2023-03-22T13:39:13.368Z,1.70
2023-03-22T13:40:55.685Z,2.88
2023-03-22T13:42:39.377Z,2.83
2023-03-22T13:44:27.859Z,2.20
2023-03-22T13:46:28.072Z,2.33
2023-03-22T13:48:12.576Z,1.85
2023-03-22T13:49:54.263Z,0.98
2023-03-22T13:51:33.127Z,2.10
2023-03-22T13:53:16.716Z,2.63
2023-03-22T13:54:54.207Z,1.77
2023-03-22T13:56:48.732Z,3.03
2023-03-22T13:58:52.201Z,1.33
2023-03-22T14:00:53.127Z,2.95
2023-03-22T14:02:30.761Z,2.40
2023-03-22T14:04:10.516Z,1.45
2023-03-22T14:05:47.202Z,1.92
2023-03-22T14:07:28.076Z,1.70
2023-03-22T14:09:13.243Z,3.50
2023-03-22T14:10:52.061Z,2.05
2023-03-22T14:12:31.975Z,2.22
2023-03-22T14:14:14.194Z,2.17
2023-03-22T14:15:52.874Z,1.63
2023-03-22T14:17:38.672Z,2.33
2023-03-22T14:19:21.011Z,2.05
2023-03-22T14:20:59.682Z,3.55
